Time;durP1;ratioP1;P1;durP2;ratioP2;P2;SDS_P1;SDS_P2;PMS_P1;PMS_P2;Temp;Humidity;BMP_temperature;BMP_pressure;BME280_temperature;BME280_humidity;BME280_pressure;Samples;Min_cycle;Max_cycle;Signal;HPM_P1;HPM_P2
2023/03/07 00:00:44;;;;;;;13.07;7.85;;;;;;;15.47;46.71;99915.88;5023754;28;20052;-31
2023/03/07 00:03:13;;;;;;;15.38;8.20;;;;;;;15.47;47.29;99922.06;5020492;28;20045;-33
2023/03/07 00:05:40;;;;;;;13.35;8.05;;;;;;;15.47;47.33;99916.72;5025312;28;20054;-33
2023/03/07 00:08:07;;;;;;;14.20;8.00;;;;;;;15.46;46.74;99912.38;5023178;28;20064;-33
2023/03/07 00:10:33;;;;;;;12.90;7.25;;;;;;;15.46;47.62;99919.56;5022900;28;20321;-33
2023/03/07 00:13:00;;;;;;;12.85;7.57;;;;;;;15.46;46.63;99924.91;5022245;28;20050;-32
2023/03/07 00:15:26;;;;;;;13.50;7.95;;;;;;;15.45;47.28;99921.38;5022733;28;20081;-32
2023/03/07 00:17:53;;;;;;;11.82;6.65;;;;;;;15.46;47.09;99911.53;5025780;28;20049;-32
2023/03/07 00:20:20;;;;;;;13.20;7.50;;;;;;;15.45;47.28;99918.72;5020676;28;20058;-31
2023/03/07 00:22:46;;;;;;;13.55;7.72;;;;;;;15.45;46.91;99915.22;5021139;28;20058;-32
2023/03/07 00:25:14;;;;;;;13.60;7.05;;;;;;;15.44;46.65;99909.03;5018428;28;20080;-31
2023/03/07 00:27:40;;;;;;;13.70;8.18;;;;;;;15.46;47.64;99916.88;5023126;28;20430;-32
2023/03/07 00:30:09;;;;;;;13.23;7.30;;;;;;;15.45;47.98;99912.53;5025163;28;20053;-32
2023/03/07 00:32:35;;;;;;;13.48;7.57;;;;;;;15.45;46.96;99904.53;5033077;28;20050;-31
2023/03/07 00:35:02;;;;;;;12.05;7.32;;;;;;;15.44;47.18;99906.38;5021737;28;20075;-31
2023/03/07 00:37:29;;;;;;;10.55;6.70;;;;;;;15.44;46.93;99902.88;5019355;28;20519;-31
2023/03/07 00:39:56;;;;;;;10.95;6.53;;;;;;;15.44;47.79;99905.53;5024639;28;20053;-31
2023/03/07 00:42:22;;;;;;;10.07;6.15;;;;;;;15.44;47.77;99905.53;5022983;28;20045;-31
2023/03/07 00:44:49;;;;;;;12.07;6.40;;;;;;;15.43;48.10;99911.84;5021424;28;20049;-31
2023/03/07 00:47:15;;;;;;;10.30;6.18;;;;;;;15.43;47.12;99906.50;5024145;28;20057;-31
2023/03/07 00:49:42;;;;;;;10.05;6.35;;;;;;;15.43;47.04;99902.00;5020215;28;20050;-31
2023/03/07 00:52:08;;;;;;;11.13;6.10;;;;;;;15.43;48.19;99907.34;5024833;28;20493;-32
2023/03/07 00:54:35;;;;;;;11.48;6.45;;;;;;;15.43;47.57;99904.69;5025729;28;20407;-31
2023/03/07 00:57:02;;;;;;;12.32;6.75;;;;;;;15.44;47.71;99913.56;5023115;28;20429;-31
2023/03/07 00:59:28;;;;;;;11.75;6.07;;;;;;;15.44;47.40;99913.56;5019765;28;20253;-31
2023/03/07 01:01:55;;;;;;;9.95;6.15;;;;;;;15.44;47.88;99916.22;5024198;28;20160;-31
2023/03/07 01:04:21;;;;;;;13.75;6.18;;;;;;;15.43;47.39;99918.03;5021163;28;20406;-31
2023/03/07 01:06:49;;;;;;;9.25;5.25;;;;;;;15.42;48.15;99910.19;5022378;28;20061;-32
2023/03/07 01:09:15;;;;;;;10.30;5.68;;;;;;;15.42;47.91;99905.69;5024298;28;20045;-31
2023/03/07 01:11:42;;;;;;;8.68;5.45;;;;;;;15.43;47.73;99906.50;5022412;28;20095;-33
2023/03/07 01:14:09;;;;;;;10.32;5.85;;;;;;;15.42;47.33;99905.69;5025186;28;20425;-32
2023/03/07 01:16:37;;;;;;;10.75;5.22;;;;;;;15.42;47.84;99903.00;5020485;28;20047;-32
2023/03/07 01:19:06;;;;;;;10.20;5.88;;;;;;;15.42;47.92;99894.16;5022620;28;20058;-31
2023/03/07 01:21:36;;;;;;;7.75;5.00;;;;;;;15.42;48.43;99894.16;5025203;28;20060;-32
2023/03/07 01:24:07;;;;;;;8.10;5.10;;;;;;;15.40;47.66;99889.00;5022537;28;20128;-32
2023/03/07 01:26:33;;;;;;;8.60;4.75;;;;;;;15.42;47.66;99886.16;5023482;28;20064;-32
2023/03/07 01:29:02;;;;;;;9.32;5.20;;;;;;;15.41;47.69;99885.31;5022687;28;20084;-31
2023/03/07 01:31:31;;;;;;;8.98;5.32;;;;;;;15.40;47.45;99881.00;5021718;28;20052;-31
2023/03/07 01:34:00;;;;;;;9.10;4.78;;;;;;;15.40;47.83;99881.00;5022850;28;20053;-31
2023/03/07 01:36:30;;;;;;;8.93;5.07;;;;;;;15.40;47.61;99880.16;5024544;28;20063;-32
2023/03/07 01:39:01;;;;;;;10.38;5.22;;;;;;;15.40;48.01;99883.66;5021234;28;20049;-32
2023/03/07 01:41:31;;;;;;;9.02;4.43;;;;;;;15.39;47.84;99881.97;5024175;28;20053;-31
2023/03/07 01:43:59;;;;;;;9.43;5.30;;;;;;;15.40;47.81;99880.16;5021648;28;20065;-32
2023/03/07 01:46:47;;;;;;;6.85;4.28;;;;;;;15.38;47.81;99879.47;5023280;28;20049;-32
2023/03/07 01:49:28;;;;;;;7.95;4.88;;;;;;;15.39;47.40;99875.78;5021609;28;20050;-31
2023/03/07 01:52:02;;;;;;;7.53;4.60;;;;;;;15.38;47.66;99866.94;5020206;28;20049;-31
2023/03/07 01:54:31;;;;;;;7.80;4.73;;;;;;;15.38;48.31;99874.97;5020043;28;20055;-31
2023/03/07 01:57:00;;;;;;;5.93;4.03;;;;;;;15.39;47.90;99875.78;5021915;28;20060;-32
2023/03/07 01:59:30;;;;;;;6.75;4.10;;;;;;;15.37;48.17;99870.63;5022591;28;20061;-31
2023/03/07 02:02:02;;;;;;;8.27;4.45;;;;;;;15.37;47.76;99870.63;5022361;28;20448;-31
2023/03/07 02:04:53;;;;;;;8.73;4.15;;;;;;;15.37;47.60;99869.78;5021092;28;20446;-31
2023/03/07 02:07:23;;;;;;;7.20;3.85;;;;;;;15.37;48.27;99869.78;5024148;28;20065;-31
2023/03/07 02:09:51;;;;;;;5.90;3.78;;;;;;;15.37;48.45;99867.13;5023538;28;20100;-31
2023/03/07 02:12:18;;;;;;;6.35;3.97;;;;;;;15.36;48.62;99860.94;5021814;28;20436;-31
2023/03/07 02:14:48;;;;;;;7.97;4.25;;;;;;;15.36;47.76;99852.09;5021400;28;20049;-31
2023/03/07 02:17:15;;;;;;;5.72;3.53;;;;;;;15.36;48.07;99852.09;5018676;28;20456;-31
2023/03/07 02:20:04;;;;;;;9.05;4.22;;;;;;;15.36;47.63;99847.59;5020930;28;20054;-32
2023/03/07 02:22:31;;;;;;;6.43;3.78;;;;;;;15.36;48.51;99841.41;5020618;28;20045;-31
2023/03/07 02:25:02;;;;;;;7.10;3.83;;;;;;;15.36;48.38;99838.75;5020921;28;20054;-32
2023/03/07 02:27:33;;;;;;;6.82;3.83;;;;;;;15.35;48.00;99840.56;5018893;28;20077;-31
2023/03/07 02:29:59;;;;;;;8.15;3.72;;;;;;;15.36;48.02;99833.41;5023668;28;20057;-31
2023/03/07 02:32:26;;;;;;;7.28;3.47;;;;;;;15.36;47.89;99838.75;5022916;28;20065;-32
2023/03/07 02:34:53;;;;;;;6.40;3.83;;;;;;;15.35;48.02;99840.56;5019599;28;20073;-31
2023/03/07 02:37:31;;;;;;;6.00;3.65;;;;;;;15.35;48.56;99835.22;5020738;28;20060;-31
2023/03/07 02:40:04;;;;;;;6.55;3.60;;;;;;;15.34;47.92;99836.22;5020643;28;20049;-31
2023/03/07 02:42:34;;;;;;;7.15;3.78;;;;;;;15.35;47.74;99829.88;5025428;28;20537;-31
2023/03/07 02:45:04;;;;;;;5.75;3.25;;;;;;;15.35;48.71;99827.22;5022377;28;20325;-32
2023/03/07 02:47:31;;;;;;;6.05;3.70;;;;;;;15.35;48.51;99831.72;5025927;28;20057;-32
2023/03/07 02:49:57;;;;;;;4.93;3.00;;;;;;;15.35;47.64;99826.38;5025486;28;20049;-33
2023/03/07 02:52:26;;;;;;;5.30;3.00;;;;;;;15.34;47.67;99830.06;5025233;28;20057;-32
2023/03/07 02:54:53;;;;;;;4.88;3.13;;;;;;;15.33;48.51;99831.06;5026061;28;20076;-32
2023/03/07 02:57:20;;;;;;;5.95;3.35;;;;;;;15.33;47.67;99826.56;5025156;28;20425;-33
2023/03/07 02:59:47;;;;;;;5.57;3.15;;;;;;;15.33;48.42;99815.88;5022479;28;20064;-31
2023/03/07 03:02:13;;;;;;;5.40;3.17;;;;;;;15.35;48.54;99818.38;5024993;28;20065;-31
2023/03/07 03:04:40;;;;;;;5.07;2.67;;;;;;;15.34;48.24;99820.19;5026422;28;20042;-31
2023/03/07 03:07:07;;;;;;;6.43;3.17;;;;;;;15.35;47.97;99813.84;5024712;28;20065;-31
2023/03/07 03:09:33;;;;;;;4.70;2.85;;;;;;;15.35;48.16;99807.69;5024393;28;20061;-31
2023/03/07 03:12:00;;;;;;;5.45;3.22;;;;;;;15.34;48.54;99812.19;5025468;28;20057;-32
2023/03/07 03:14:26;;;;;;;5.13;3.05;;;;;;;15.35;47.85;99810.34;5021460;28;20051;-31
2023/03/07 03:16:53;;;;;;;6.82;3.10;;;;;;;15.35;47.73;99805.03;5020962;28;20045;-31
2023/03/07 03:19:20;;;;;;;5.40;3.00;;;;;;;15.36;48.39;99806.72;5026086;28;20050;-31
2023/03/07 03:21:47;;;;;;;5.63;2.65;;;;;;;15.35;48.77;99805.84;5023853;28;20049;-32
2023/03/07 03:24:14;;;;;;;4.75;3.15;;;;;;;15.35;47.60;99808.53;5023463;28;20396;-32
2023/03/07 03:26:40;;;;;;;4.85;2.70;;;;;;;15.35;48.33;99807.69;5024787;28;20064;-31
2023/03/07 03:29:07;;;;;;;4.88;2.78;;;;;;;15.35;47.90;99808.53;5027223;28;20876;-32
2023/03/07 03:31:33;;;;;;;4.68;2.85;;;;;;;15.35;48.20;99805.84;5026054;28;20053;-31
2023/03/07 03:34:00;;;;;;;5.07;3.13;;;;;;;15.35;48.70;99803.19;5022744;28;20184;-31
2023/03/07 03:36:27;;;;;;;4.53;2.80;;;;;;;15.35;48.01;99805.03;5024180;28;20539;-32
2023/03/07 03:38:56;;;;;;;5.45;2.75;;;;;;;15.35;48.51;99805.03;5024204;28;20046;-31
2023/03/07 03:41:23;;;;;;;4.18;2.70;;;;;;;15.35;48.31;99797.00;5023144;28;20049;-31
2023/03/07 03:43:50;;;;;;;3.90;2.60;;;;;;;15.35;48.76;99799.69;5024223;28;20573;-31
2023/03/07 03:46:18;;;;;;;4.03;2.63;;;;;;;15.34;47.50;99796.19;5021584;28;21023;-31
2023/03/07 03:48:52;;;;;;;5.03;2.50;;;;;;;15.34;48.02;99793.50;5024411;28;20050;-31
2023/03/07 03:51:20;;;;;;;3.28;2.55;;;;;;;15.34;47.86;99792.69;5026397;28;20057;-32
2023/03/07 03:53:46;;;;;;;3.25;2.20;;;;;;;15.36;47.76;99801.38;5021595;28;20357;-32
2023/03/07 03:56:20;;;;;;;3.97;2.33;;;;;;;15.34;47.78;99798.84;5020953;28;20049;-32
2023/03/07 03:58:49;;;;;;;5.25;2.60;;;;;;;15.33;48.24;99794.50;5023527;28;20746;-33
2023/03/07 04:01:16;;;;;;;3.67;2.05;;;;;;;15.34;47.88;99801.53;5019853;28;20068;-32
2023/03/07 04:03:47;;;;;;;3.85;2.47;;;;;;;15.34;47.99;99798.00;5023088;28;20049;-32
2023/03/07 04:06:17;;;;;;;5.28;2.40;;;;;;;15.35;48.77;99797.00;5021233;28;20166;-33
2023/03/07 04:08:48;;;;;;;4.68;2.63;;;;;;;15.32;48.67;99787.50;5022088;28;20046;-33
2023/03/07 04:11:14;;;;;;;5.85;2.47;;;;;;;15.34;47.54;99785.50;5021487;28;20132;-33
2023/03/07 04:13:41;;;;;;;3.47;2.35;;;;;;;15.32;48.36;99784.84;5022781;28;20337;-32
2023/03/07 04:16:07;;;;;;;4.35;2.10;;;;;;;15.33;48.17;99788.34;5020690;28;20340;-32
2023/03/07 04:18:35;;;;;;;4.15;2.60;;;;;;;15.33;47.84;99783.00;5022133;28;20050;-32
2023/03/07 04:21:03;;;;;;;4.10;2.15;;;;;;;15.31;48.41;99786.66;5023922;28;20356;-33
2023/03/07 04:23:31;;;;;;;3.63;1.98;;;;;;;15.31;48.64;99786.66;5020460;28;20045;-32
2023/03/07 04:26:00;;;;;;;3.58;2.05;;;;;;;15.31;47.65;99783.97;5021306;28;20045;-33
2023/03/07 04:28:44;;;;;;;3.22;2.08;;;;;;;15.31;48.46;99773.28;5016916;28;20294;-32
2023/03/07 04:31:16;;;;;;;3.17;2.03;;;;;;;15.31;48.15;99777.81;5018534;28;20349;-33
2023/03/07 04:33:44;;;;;;;6.30;2.22;;;;;;;15.31;48.59;99773.28;5025837;28;20413;-33
2023/03/07 04:36:11;;;;;;;4.95;2.53;;;;;;;15.30;47.98;99771.63;5024592;28;20041;-32
2023/03/07 04:38:39;;;;;;;4.07;2.53;;;;;;;15.31;47.93;99778.63;5024505;28;20050;-33
2023/03/07 04:41:06;;;;;;;2.28;1.73;;;;;;;15.30;48.93;99776.97;5023417;28;20087;-32
2023/03/07 04:43:33;;;;;;;3.35;1.90;;;;;;;15.30;49.00;99781.47;5024624;28;20049;-32
2023/03/07 04:45:59;;;;;;;3.80;2.17;;;;;;;15.31;48.51;99785.81;5022025;28;20055;-32
2023/03/07 04:48:26;;;;;;;3.10;1.92;;;;;;;15.29;48.88;99780.66;5022432;28;20103;-32
2023/03/07 04:50:53;;;;;;;3.17;1.88;;;;;;;15.30;48.46;99776.97;5024954;28;20045;-32
2023/03/07 04:53:19;;;;;;;5.78;1.83;;;;;;;15.30;48.86;99776.16;5024839;28;20520;-32
2023/03/07 04:55:46;;;;;;;2.53;1.67;;;;;;;15.30;48.66;99776.97;5023573;28;20045;-32
2023/03/07 04:58:13;;;;;;;4.70;1.98;;;;;;;15.29;48.22;99769.97;5023297;28;20056;-32
2023/03/07 05:00:44;;;;;;;3.35;2.10;;;;;;;15.28;48.68;99776.31;5022270;28;20141;-32
2023/03/07 05:03:12;;;;;;;4.05;1.80;;;;;;;15.29;48.17;99769.13;5022412;28;20056;-32
2023/03/07 05:05:39;;;;;;;2.92;1.65;;;;;;;15.29;49.08;99766.47;5021790;28;20348;-32
2023/03/07 05:08:05;;;;;;;3.50;1.48;;;;;;;15.29;49.24;99763.78;5019101;28;20061;-33
2023/03/07 05:10:33;;;;;;;5.40;1.80;;;;;;;15.28;48.29;99768.31;5022322;28;20360;-33
2023/03/07 05:13:00;;;;;;;3.00;1.55;;;;;;;15.27;49.19;99766.63;5022813;28;20349;-32
2023/03/07 05:15:27;;;;;;;3.50;1.90;;;;;;;15.28;49.14;99776.31;5019455;28;20045;-32
2023/03/07 05:17:53;;;;;;;5.35;2.00;;;;;;;15.26;48.96;99775.63;5017286;28;20071;-33
2023/03/07 05:20:20;;;;;;;2.65;1.40;;;;;;;15.25;49.15;99771.28;5022272;28;20069;-32
2023/03/07 05:22:47;;;;;;;3.35;1.63;;;;;;;15.26;48.48;99774.78;5020855;28;20045;-32
2023/03/07 05:25:14;;;;;;;3.95;1.88;;;;;;;15.26;49.12;99783.63;5018521;28;20077;-33
2023/03/07 05:27:40;;;;;;;4.75;2.22;;;;;;;15.25;48.61;99781.13;5021050;28;21186;-33
2023/03/07 05:30:08;;;;;;;4.13;2.25;;;;;;;15.24;49.16;99782.97;5020433;28;20046;-34
2023/03/07 05:32:34;;;;;;;4.40;2.50;;;;;;;15.24;49.16;99774.13;5024483;28;20058;-32
2023/03/07 05:35:01;;;;;;;6.18;2.47;;;;;;;15.23;48.77;99786.63;5020286;28;20100;-33
2023/03/07 05:37:28;;;;;;;5.13;2.78;;;;;;;15.22;48.47;99786.78;5020136;28;20076;-33
2023/03/07 05:39:54;;;;;;;6.38;2.70;;;;;;;15.22;49.27;99797.47;5015924;28;20049;-33
2023/03/07 05:42:21;;;;;;;6.50;2.72;;;;;;;15.22;48.53;99792.13;5021182;28;20060;-33
2023/03/07 05:44:47;;;;;;;4.95;2.97;;;;;;;15.20;49.41;99796.81;5016740;28;20050;-33
2023/03/07 05:47:14;;;;;;;4.45;2.72;;;;;;;15.19;49.14;99801.28;5020951;28;20421;-33
2023/03/07 05:49:40;;;;;;;6.22;3.20;;;;;;;15.18;48.94;99799.63;5020803;28;20050;-34
2023/03/07 05:52:07;;;;;;;7.15;3.38;;;;;;;15.17;48.58;99803.28;5018823;28;20084;-34
2023/03/07 05:54:33;;;;;;;7.75;3.55;;;;;;;15.17;49.21;99803.28;5018127;28;20053;-33
2023/03/07 05:57:00;;;;;;;5.95;3.15;;;;;;;15.16;48.57;99800.78;5023372;28;20136;-32
2023/03/07 05:59:26;;;;;;;6.85;3.33;;;;;;;15.16;49.28;99804.28;5017564;28;20060;-33
2023/03/07 06:01:53;;;;;;;5.88;3.25;;;;;;;15.14;49.32;99798.28;5016714;28;20046;-32
2023/03/07 06:04:19;;;;;;;6.30;3.35;;;;;;;15.16;48.45;99800.78;5020426;28;20128;-33
2023/03/07 06:06:46;;;;;;;6.13;3.15;;;;;;;15.14;48.57;99808.13;5020059;28;20123;-33
2023/03/07 06:09:13;;;;;;;8.10;3.53;;;;;;;15.15;48.71;99804.44;5017022;28;20108;-32
2023/03/07 06:11:39;;;;;;;6.82;3.72;;;;;;;15.14;49.32;99810.78;5017055;28;20064;-32
2023/03/07 06:14:06;;;;;;;7.95;3.70;;;;;;;15.14;48.32;99806.28;5018263;28;20045;-32
2023/03/07 06:16:32;;;;;;;8.45;3.95;;;;;;;15.14;49.34;99803.59;5024368;28;20121;-32
2023/03/07 06:18:59;;;;;;;7.05;3.85;;;;;;;15.14;49.34;99803.59;5026255;28;20341;-32
2023/03/07 06:21:25;;;;;;;7.75;3.63;;;;;;;15.13;49.55;99804.59;5027356;28;20062;-32
2023/03/07 06:23:52;;;;;;;7.53;4.05;;;;;;;15.13;48.36;99801.09;5025177;28;20300;-34
2023/03/07 06:26:18;;;;;;;7.53;3.47;;;;;;;15.12;49.34;99802.94;5026120;28;20045;-33
2023/03/07 06:28:45;;;;;;;6.80;3.67;;;;;;;15.11;48.51;99801.25;5027606;28;20042;-31
2023/03/07 06:31:14;;;;;;;6.50;3.65;;;;;;;15.12;48.77;99807.44;5021631;28;20049;-31
2023/03/07 06:33:42;;;;;;;6.90;3.70;;;;;;;15.12;48.37;99810.94;5023426;28;20083;-31
2023/03/07 06:36:11;;;;;;;6.07;3.70;;;;;;;15.11;49.06;99816.44;5026266;28;20489;-33
2023/03/07 06:38:38;;;;;;;7.22;3.97;;;;;;;15.11;48.66;99811.09;5028243;28;20072;-32
2023/03/07 06:41:05;;;;;;;9.60;3.78;;;;;;;15.09;49.25;99808.59;5022651;28;20045;-32
2023/03/07 06:43:32;;;;;;;7.45;3.90;;;;;;;15.09;48.32;99813.09;5024695;28;20053;-32
2023/03/07 06:45:59;;;;;;;8.95;3.95;;;;;;;15.08;49.16;99820.28;5018444;28;20046;-31
2023/03/07 06:48:26;;;;;;;5.90;3.40;;;;;;;15.08;49.28;99820.28;5024750;28;20104;-32
2023/03/07 06:50:53;;;;;;;6.20;3.92;;;;;;;15.07;49.22;99818.56;5023563;28;20703;-33
2023/03/07 06:53:19;;;;;;;6.72;3.30;;;;;;;15.05;49.13;99813.41;5025329;28;20064;-33
2023/03/07 06:55:50;;;;;;;7.10;3.67;;;;;;;15.07;49.28;99813.25;5019804;28;20136;-32
2023/03/07 06:58:17;;;;;;;5.50;3.40;;;;;;;15.06;48.42;99814.25;5024462;28;20053;-33
2023/03/07 07:00:44;;;;;;;9.60;3.63;;;;;;;15.05;48.75;99813.41;5016269;28;20171;-31
2023/03/07 07:03:12;;;;;;;8.63;3.33;;;;;;;15.04;48.57;99811.75;5022440;28;20100;-32
2023/03/07 07:05:39;;;;;;;6.13;3.28;;;;;;;15.03;48.99;99815.41;5022536;28;20045;-32
2023/03/07 07:08:06;;;;;;;6.28;3.10;;;;;;;15.02;48.95;99808.38;5023024;28;20128;-31
2023/03/07 07:10:33;;;;;;;4.80;3.00;;;;;;;15.03;48.92;99811.88;5019242;28;20050;-31
2023/03/07 07:13:00;;;;;;;6.10;3.47;;;;;;;15.02;48.41;99808.38;5020033;28;20129;-32
2023/03/07 07:15:26;;;;;;;6.25;3.47;;;;;;;15.03;48.22;99814.56;5019631;28;20129;-32
2023/03/07 07:17:53;;;;;;;6.93;4.10;;;;;;;15.01;49.38;99817.41;5022232;28;20053;-32
2023/03/07 07:20:20;;;;;;;5.13;2.90;;;;;;;15.01;49.14;99812.06;5021826;28;20400;-31
2023/03/07 07:22:46;;;;;;;6.18;3.13;;;;;;;15.01;48.47;99811.22;5024399;28;20533;-33
2023/03/07 07:25:13;;;;;;;6.85;3.20;;;;;;;15.03;49.45;99803.88;5024655;28;20146;-31
2023/03/07 07:27:39;;;;;;;8.18;2.83;;;;;;;15.04;49.25;99805.56;5019544;28;20056;-32
2023/03/07 07:30:07;;;;;;;7.43;3.13;;;;;;;15.05;49.76;99808.06;5019776;28;20048;-31
2023/03/07 07:32:34;;;;;;;5.85;2.90;;;;;;;15.04;49.64;99802.91;5022837;28;20060;-31
2023/03/07 07:35:01;;;;;;;6.25;2.75;;;;;;;15.03;49.60;99799.41;5019844;28;20457;-31
2023/03/07 07:37:27;;;;;;;7.53;2.50;;;;;;;15.04;50.02;99808.25;5022995;28;20356;-31
2023/03/07 07:39:54;;;;;;;7.43;3.13;;;;;;;15.03;49.84;99812.75;5026275;28;20053;-32
2023/03/07 07:42:20;;;;;;;6.05;3.22;;;;;;;15.04;49.10;99813.59;5019821;28;20275;-33
2023/03/07 07:44:47;;;;;;;5.70;3.08;;;;;;;15.02;50.00;99808.38;5022442;28;20050;-32
2023/03/07 07:47:14;;;;;;;6.55;2.95;;;;;;;15.03;50.01;99819.91;5025258;28;20057;-32
2023/03/07 07:49:40;;;;;;;9.40;2.90;;;;;;;15.02;49.17;99823.56;5025382;28;20445;-32
2023/03/07 07:52:07;;;;;;;5.97;2.65;;;;;;;15.02;49.93;99826.22;5022101;28;20330;-32
2023/03/07 07:54:33;;;;;;;6.38;2.95;;;;;;;15.01;49.75;99824.56;5021103;28;20057;-33
2023/03/07 07:57:00;;;;;;;7.90;2.83;;;;;;;15.02;49.66;99828.91;5018287;28;20042;-32
2023/03/07 07:59:26;;;;;;;8.35;2.95;;;;;;;15.02;49.10;99826.22;5022032;28;20064;-32
2023/03/07 08:01:53;;;;;;;8.75;3.40;;;;;;;15.00;49.85;99826.41;5021209;28;20077;-32
2023/03/07 08:04:20;;;;;;;15.30;3.28;;;;;;;15.02;49.85;99828.91;5019341;28;20054;-32
2023/03/07 08:06:46;;;;;;;8.60;2.85;;;;;;;15.02;49.88;99837.75;5023779;28;20050;-32
2023/03/07 08:09:13;;;;;;;7.43;2.88;;;;;;;15.02;49.41;99834.25;5026506;28;20460;-31
2023/03/07 08:11:40;;;;;;;10.48;3.00;;;;;;;15.02;49.60;99824.41;5022497;28;20340;-32
2023/03/07 08:14:07;;;;;;;7.47;2.47;;;;;;;15.02;49.04;99831.56;5020573;28;20171;-32
2023/03/07 08:16:33;;;;;;;9.05;3.20;;;;;;;15.03;49.43;99833.22;5020840;28;20052;-32
2023/03/07 08:19:00;;;;;;;8.20;3.05;;;;;;;15.02;49.29;99837.75;5020621;28;20053;-32
2023/03/07 08:21:26;;;;;;;8.02;3.00;;;;;;;15.05;49.17;99849.94;5024241;28;20057;-32
2023/03/07 08:23:54;;;;;;;6.10;3.00;;;;;;;15.04;48.85;99833.09;5020569;28;20050;-33
2023/03/07 08:26:21;;;;;;;6.88;2.88;;;;;;;15.04;49.47;99838.44;5019412;28;20076;-32
2023/03/07 08:28:48;;;;;;;6.25;2.85;;;;;;;15.04;49.68;99833.09;5017061;28;20054;-32
2023/03/07 08:31:22;;;;;;;5.25;2.53;;;;;;;15.04;48.76;99841.09;5028978;28;20068;-32
2023/03/07 08:33:50;;;;;;;9.10;3.47;;;;;;;15.04;49.77;99830.44;5020868;28;20050;-32
2023/03/07 08:36:17;;;;;;;6.40;2.90;;;;;;;15.02;48.83;99829.72;5021646;28;20041;-33
2023/03/07 08:38:49;;;;;;;6.18;3.15;;;;;;;15.03;49.05;99830.56;5021310;28;20046;-32
2023/03/07 08:41:17;;;;;;;7.78;2.83;;;;;;;15.02;49.02;99829.72;5018754;28;20049;-32
2023/03/07 08:43:44;;;;;;;6.25;2.60;;;;;;;15.01;48.83;99825.41;5018336;28;20053;-32
2023/03/07 08:46:10;;;;;;;4.03;2.28;;;;;;;15.01;48.45;99824.56;5014719;28;20046;-32
2023/03/07 08:48:37;;;;;;;5.15;2.35;;;;;;;15.01;48.62;99832.56;5021003;28;20057;-31
2023/03/07 08:51:13;;;;;;;4.32;2.20;;;;;;;15.00;49.15;99834.41;5029268;28;20124;-31
2023/03/07 08:53:42;;;;;;;4.57;2.25;;;;;;;15.01;48.29;99833.41;5021373;28;20500;-32
2023/03/07 08:56:10;;;;;;;5.03;2.35;;;;;;;15.01;48.64;99836.06;5016811;28;20042;-31
2023/03/07 08:58:37;;;;;;;6.13;2.60;;;;;;;15.01;48.56;99835.25;5019307;28;20479;-31
2023/03/07 09:01:05;;;;;;;5.55;2.45;;;;;;;15.01;48.65;99828.06;5019402;28;20042;-31
2023/03/07 09:03:31;;;;;;;4.85;2.20;;;;;;;15.02;48.35;99826.22;5019758;28;20049;-32
2023/03/07 09:05:58;;;;;;;4.30;2.30;;;;;;;15.03;49.15;99834.09;5023432;28;20067;-31
2023/03/07 09:08:25;;;;;;;5.95;2.42;;;;;;;15.03;49.28;99825.22;5019963;28;20137;-31
2023/03/07 09:10:52;;;;;;;6.20;2.45;;;;;;;15.04;49.07;99834.94;5016703;28;20053;-31
2023/03/07 09:13:18;;;;;;;5.78;2.13;;;;;;;15.05;48.80;99833.94;5020211;28;20042;-31
2023/03/07 09:15:45;;;;;;;4.00;1.88;;;;;;;15.05;49.13;99824.09;5018956;28;20085;-31
2023/03/07 09:18:12;;;;;;;3.42;1.95;;;;;;;15.06;48.76;99825.75;5019722;28;20350;-32
2023/03/07 09:20:39;;;;;;;6.57;2.17;;;;;;;15.08;48.52;99825.59;5016413;28;20342;-32
2023/03/07 09:23:07;;;;;;;8.73;2.28;;;;;;;15.08;48.25;99822.94;5016681;28;20046;-33
2023/03/07 09:25:35;;;;;;;4.88;2.13;;;;;;;15.09;48.72;99824.59;5016885;28;20050;-33
2023/03/07 09:28:03;;;;;;;4.90;2.20;;;;;;;15.10;48.64;99834.28;5017999;28;20129;-33
2023/03/07 09:30:29;;;;;;;5.10;1.85;;;;;;;15.11;48.99;99837.78;5023999;28;20104;-33
2023/03/07 09:32:56;;;;;;;5.47;1.92;;;;;;;15.13;48.76;99841.97;5017391;28;20081;-31
2023/03/07 09:35:23;;;;;;;4.30;2.17;;;;;;;15.13;49.16;99843.81;5019131;28;20371;-32
2023/03/07 09:37:50;;;;;;;3.97;2.05;;;;;;;15.12;48.80;99831.47;5017568;28;20052;-32
2023/03/07 09:40:22;;;;;;;4.95;2.10;;;;;;;15.15;49.03;99844.47;5017951;28;20064;-32
2023/03/07 09:43:15;;;;;;;3.67;1.80;;;;;;;15.15;48.34;99839.13;5014531;28;20505;-32
2023/03/07 09:45:45;;;;;;;3.25;1.90;;;;;;;15.18;48.36;99842.31;5018035;28;20064;-32
2023/03/07 09:48:46;;;;;;;3.50;2.03;;;;;;;15.18;48.22;99837.00;5017515;28;20091;-32
2023/03/07 09:51:31;;;;;;;3.13;1.63;;;;;;;15.19;47.96;99833.31;5021390;28;20064;-32
2023/03/07 09:54:08;;;;;;;4.30;2.03;;;;;;;15.20;47.91;99840.34;5025677;28;20320;-33
2023/03/07 09:56:54;;;;;;;2.72;1.60;;;;;;;15.20;48.22;99839.50;5028475;28;20341;-33
2023/03/07 09:59:44;;;;;;;3.08;1.50;;;;;;;15.21;47.97;99839.34;5023785;28;20363;-33
2023/03/07 10:02:39;;;;;;;3.60;1.90;;;;;;;15.20;49.06;99834.19;5030178;28;20048;-32
2023/03/07 10:05:30;;;;;;;4.43;1.83;;;;;;;15.21;48.37;99841.19;5027541;28;20352;-31
2023/03/07 10:08:00;;;;;;;3.85;1.42;;;;;;;15.20;48.15;99840.34;5024629;28;20050;-32
2023/03/07 10:10:39;;;;;;;3.22;1.70;;;;;;;15.18;48.36;99839.66;5024146;28;20050;-32
2023/03/07 10:13:41;;;;;;;2.78;1.65;;;;;;;15.17;48.24;99838.00;5020401;28;20050;-32
2023/03/07 10:16:25;;;;;;;4.50;2.00;;;;;;;15.18;48.05;99847.66;5025740;28;20048;-32
2023/03/07 10:19:03;;;;;;;3.45;1.50;;;;;;;15.19;48.97;99846.66;5029599;28;20196;-32
2023/03/07 10:21:45;;;;;;;5.88;1.92;;;;;;;15.19;49.02;99845.81;5022824;28;20054;-32
2023/03/07 10:24:24;;;;;;;3.13;1.48;;;;;;;15.19;48.19;99852.00;5024023;28;20132;-33
2023/03/07 10:27:01;;;;;;;3.92;1.58;;;;;;;15.19;48.20;99851.16;5022579;28;20352;-32
2023/03/07 10:29:36;;;;;;;3.70;1.40;;;;;;;15.18;49.13;99850.34;5028286;28;20345;-32
2023/03/07 10:32:31;;;;;;;3.60;1.70;;;;;;;15.18;49.04;99858.34;5023675;28;20049;-32
2023/03/07 10:35:10;;;;;;;3.58;1.70;;;;;;;15.18;48.99;99854.84;5030100;28;20046;-32
2023/03/07 10:37:53;;;;;;;2.90;1.33;;;;;;;15.17;49.19;99851.34;5021854;28;20119;-33
2023/03/07 10:40:30;;;;;;;1.35;0.93;;;;;;;15.18;49.03;99852.16;5027649;28;20460;-33
2023/03/07 10:42:58;;;;;;;3.00;1.30;;;;;;;15.18;48.43;99846.84;5021437;28;20444;-32
2023/03/07 10:45:32;;;;;;;2.17;1.10;;;;;;;15.18;48.33;99850.34;5031095;28;20050;-32
2023/03/07 10:48:05;;;;;;;;;;;;;;;15.18;48.63;99858.34;5025430;28;20089;-32
2023/03/07 10:50:48;;;;;;;2.25;1.27;;;;;;;15.21;48.33;99851.84;5028953;28;19921;-32
2023/03/07 10:53:24;;;;;;;2.67;1.13;;;;;;;15.22;48.75;99858.88;5021256;28;20487;-33
2023/03/07 10:55:52;;;;;;;3.28;1.10;;;;;;;15.21;49.07;99863.38;5025631;28;20053;-32
2023/03/07 10:58:24;;;;;;;3.65;1.52;;;;;;;15.21;49.10;99867.88;5022433;28;20490;-32
2023/03/07 11:00:59;;;;;;;2.55;1.33;;;;;;;15.21;49.00;99862.53;5023395;28;20067;-33
2023/03/07 11:03:33;;;;;;;2.55;1.13;;;;;;;15.21;47.93;99859.88;5018925;28;20045;-32
2023/03/07 11:06:26;;;;;;;1.92;1.20;;;;;;;15.21;48.98;99860.69;5021680;28;20053;-32
2023/03/07 11:08:55;;;;;;;2.65;1.27;;;;;;;15.22;48.16;99873.03;5018186;28;20050;-31
2023/03/07 11:11:24;;;;;;;2.03;1.20;;;;;;;15.21;49.25;99874.03;5020255;28;20046;-32
2023/03/07 11:14:17;;;;;;;1.92;1.25;;;;;;;15.19;49.02;99875.19;5025518;28;20045;-32
2023/03/07 11:16:49;;;;;;;1.67;1.15;;;;;;;15.21;48.18;99870.53;5022538;28;20120;-32
2023/03/07 11:19:35;;;;;;;3.05;1.13;;;;;;;15.19;48.87;99870.69;5022688;28;20060;-32
2023/03/07 11:22:32;;;;;;;2.30;1.33;;;;;;;15.19;48.27;99870.69;5020859;28;20190;-32
2023/03/07 11:25:01;;;;;;;2.03;1.10;;;;;;;15.22;48.97;99873.03;5017083;28;20053;-33
2023/03/07 11:27:36;;;;;;;2.42;1.05;;;;;;;15.21;48.95;99868.72;5022444;28;20355;-32
2023/03/07 11:30:06;;;;;;;1.67;1.20;;;;;;;15.22;48.84;99865.03;5021022;28;20346;-32
2023/03/07 11:32:39;;;;;;;1.73;1.10;;;;;;;15.24;49.05;99873.72;5020384;28;20049;-32
2023/03/07 11:35:11;;;;;;;1.52;1.00;;;;;;;15.26;48.50;99873.56;5021767;28;20440;-33
2023/03/07 11:37:59;;;;;;;2.13;0.90;;;;;;;15.26;48.35;99873.56;5020873;28;20047;-32
2023/03/07 11:40:32;;;;;;;2.45;1.10;;;;;;;15.27;48.03;99865.38;5020751;28;20430;-30
2023/03/07 11:43:21;;;;;;;2.47;1.23;;;;;;;15.27;47.96;99865.38;5021599;28;20461;-31